Time;durP1;ratioP1;P1;durP2;ratioP2;P2;SDS_P1;SDS_P2;PMS_P1;PMS_P2;Temp;Humidity;BMP_temperature;BMP_pressure;BME280_temperature;BME280_humidity;BME280_pressure;Samples;Min_cycle;Max_cycle;Signal;HPM_P1;HPM_P2
2022/01/01 00:00:01;;;;;;;10.05;7.30;;;9.10;80.00;;;;;;5004107;28;20700;-68
2022/01/01 00:02:26;;;;;;;8.02;6.50;;;9.00;79.80;;;;;;4996436;28;20046;-66
2022/01/01 00:04:52;;;;;;;8.43;6.25;;;9.00;79.80;;;;;;5005365;28;20289;-67
2022/01/01 00:07:18;;;;;;;9.18;5.55;;;9.00;79.90;;;;;;5004372;28;20505;-67
2022/01/01 00:09:44;;;;;;;7.35;5.47;;;9.00;80.00;;;;;;5004124;28;20050;-67
2022/01/01 00:12:11;;;;;;;6.97;5.72;;;8.90;79.80;;;;;;5016589;28;20066;-68
2022/01/01 00:14:38;;;;;;;9.18;5.80;;;8.90;79.80;;;;;;5005612;28;20092;-67
2022/01/01 00:17:04;;;;;;;6.60;5.40;;;8.90;80.00;;;;;;5004960;28;20121;-67
2022/01/01 00:19:33;;;;;;;7.20;5.13;;;8.80;79.90;;;;;;5004437;28;20042;-67
2022/01/01 00:22:00;;;;;;;5.88;4.60;;;8.80;79.80;;;;;;5004071;28;20042;-68
2022/01/01 00:24:25;;;;;;;6.25;4.63;;;8.80;79.80;;;;;;5000221;28;20041;-67
2022/01/01 00:26:51;;;;;;;6.22;4.45;;;8.70;79.70;;;;;;5004766;28;20050;-67
2022/01/01 00:29:17;;;;;;;5.38;4.53;;;8.70;79.80;;;;;;5004544;28;20401;-67
2022/01/01 00:31:43;;;;;;;7.47;4.70;;;8.70;80.00;;;;;;5005080;28;20041;-67
2022/01/01 00:34:09;;;;;;;5.03;4.40;;;8.70;80.20;;;;;;5005265;28;20041;-68
2022/01/01 00:36:34;;;;;;;5.25;4.18;;;8.60;80.10;;;;;;5005117;28;20233;-67
2022/01/01 00:39:00;;;;;;;6.32;4.43;;;8.60;80.10;;;;;;5008027;28;20030;-67
2022/01/01 00:41:26;;;;;;;7.15;5.15;;;8.60;79.80;;;;;;5008662;28;20042;-68
2022/01/01 00:43:51;;;;;;;6.60;4.80;;;8.50;79.80;;;;;;5007339;28;20425;-68
2022/01/01 00:46:17;;;;;;;7.55;5.82;;;8.50;79.70;;;;;;5006811;28;20045;-67
2022/01/01 00:48:42;;;;;;;12.70;6.70;;;8.50;79.60;;;;;;5007308;28;20117;-68
2022/01/01 00:51:08;;;;;;;10.60;6.32;;;8.40;79.40;;;;;;5006601;28;20068;-68
2022/01/01 00:53:34;;;;;;;7.72;5.90;;;8.40;79.40;;;;;;5006769;28;20058;-68
2022/01/01 00:56:00;;;;;;;9.07;6.93;;;8.30;79.40;;;;;;5007670;28;20462;-68
2022/01/01 00:58:25;;;;;;;8.63;6.85;;;8.30;79.40;;;;;;5008705;28;20585;-67
2022/01/01 01:00:51;;;;;;;9.02;7.13;;;8.20;79.30;;;;;;5006751;28;20409;-67
2022/01/01 01:03:17;;;;;;;9.57;7.22;;;8.20;79.40;;;;;;5005008;28;20498;-67
2022/01/01 01:05:45;;;;;;;9.98;7.30;;;8.10;79.40;;;;;;5008668;28;20068;-67
2022/01/01 01:08:14;;;;;;;11.82;8.07;;;8.10;79.40;;;;;;5008658;28;20133;-68
2022/01/01 01:10:40;;;;;;;9.63;7.50;;;8.10;79.80;;;;;;5005592;28;20030;-67
2022/01/01 01:13:07;;;;;;;10.15;7.68;;;8.00;79.80;;;;;;5002291;28;20038;-67
2022/01/01 01:15:34;;;;;;;10.95;6.78;;;8.00;79.80;;;;;;5000389;28;20026;-67
2022/01/01 01:18:03;;;;;;;8.80;6.45;;;8.00;79.90;;;;;;4998937;28;20042;-67
2022/01/01 01:20:29;;;;;;;10.77;8.13;;;7.90;79.80;;;;;;4996126;28;20037;-67
2022/01/01 01:22:54;;;;;;;10.40;7.00;;;7.90;80.00;;;;;;4998435;28;20100;-67
2022/01/01 01:25:22;;;;;;;10.85;6.30;;;7.80;80.10;;;;;;5007222;28;20038;-67
2022/01/01 01:27:49;;;;;;;9.50;6.47;;;7.80;80.10;;;;;;4999967;28;20041;-67
2022/01/01 01:30:16;;;;;;;10.75;8.25;;;7.80;80.10;;;;;;5000550;28;20513;-67
2022/01/01 01:32:43;;;;;;;12.50;8.98;;;7.80;80.10;;;;;;4996252;28;20719;-68
2022/01/01 01:35:10;;;;;;;11.85;8.77;;;7.70;80.00;;;;;;4995573;28;20042;-67
2022/01/01 01:37:36;;;;;;;14.85;9.15;;;7.80;80.10;;;;;;4996535;28;20067;-68
2022/01/01 01:40:04;;;;;;;14.68;9.60;;;7.70;80.10;;;;;;4998536;28;20460;-67
2022/01/01 01:42:31;;;;;;;13.68;9.48;;;7.80;80.30;;;;;;4995256;28;20057;-67
2022/01/01 01:45:00;;;;;;;12.80;8.90;;;7.70;80.20;;;;;;4996905;28;20034;-67
2022/01/01 01:47:35;;;;;;;14.20;9.25;;;7.80;80.20;;;;;;5000357;28;20044;-66
2022/01/01 01:50:06;;;;;;;14.40;9.20;;;7.80;80.30;;;;;;4997294;28;20549;-68
2022/01/01 01:52:35;;;;;;;13.48;8.93;;;7.80;80.30;;;;;;5011895;28;20034;-67
2022/01/01 01:55:07;;;;;;;15.93;9.75;;;7.70;80.20;;;;;;4998320;28;20056;-67
2022/01/01 01:57:35;;;;;;;15.68;8.77;;;7.70;80.20;;;;;;4995588;28;20505;-66
2022/01/01 02:00:01;;;;;;;15.93;10.10;;;7.70;80.10;;;;;;4999895;28;20052;-67
2022/01/01 02:02:27;;;;;;;16.95;10.27;;;7.70;80.00;;;;;;4996990;28;20072;-67
2022/01/01 02:04:52;;;;;;;15.05;9.40;;;7.70;80.10;;;;;;4996072;28;20037;-67
2022/01/01 02:07:20;;;;;;;13.52;9.00;;;7.70;80.00;;;;;;4996174;28;20519;-67
2022/01/01 02:09:45;;;;;;;17.38;11.38;;;7.70;79.80;;;;;;4998385;28;20077;-67
2022/01/01 02:12:11;;;;;;;17.95;11.45;;;7.70;79.90;;;;;;5001637;28;20042;-67
2022/01/01 02:17:13;;;;;;;17.58;11.85;;;7.70;80.30;;;;;;4994916;28;20417;-67
2022/01/01 02:19:46;;;;;;;16.50;11.10;;;7.60;80.30;;;;;;4995797;28;20037;-67
2022/01/01 02:22:12;;;;;;;15.00;9.77;;;7.60;80.70;;;;;;4997224;28;20436;-66
2022/01/01 02:24:38;;;;;;;15.50;10.68;;;7.60;80.60;;;;;;4997679;28;20053;-67
2022/01/01 02:27:03;;;;;;;14.93;10.35;;;7.60;80.40;;;;;;4994839;28;20038;-67
2022/01/01 02:29:29;;;;;;;17.02;10.85;;;7.50;80.10;;;;;;4994763;28;20065;-67
2022/01/01 02:31:55;;;;;;;15.40;10.60;;;7.50;80.00;;;;;;4994888;28;20042;-67
2022/01/01 02:34:20;;;;;;;13.90;9.70;;;7.50;79.90;;;;;;4994167;28;20038;-67
2022/01/01 02:36:46;;;;;;;16.40;10.38;;;7.50;80.10;;;;;;4995123;28;20400;-67
2022/01/01 02:39:21;;;;;;;16.67;10.85;;;7.40;80.00;;;;;;4998154;28;20046;-67
2022/01/01 02:41:50;;;;;;;15.38;10.32;;;7.40;79.80;;;;;;4996570;28;20030;-65
2022/01/01 02:44:17;;;;;;;18.85;10.75;;;7.40;79.80;;;;;;4994390;28;22559;-67
2022/01/01 02:46:43;;;;;;;17.30;9.88;;;7.30;79.60;;;;;;4997458;28;20117;-67
2022/01/01 02:49:08;;;;;;;18.30;10.82;;;7.20;79.40;;;;;;4996435;28;20113;-67
2022/01/01 02:51:34;;;;;;;17.25;10.02;;;7.20;79.50;;;;;;4995152;28;20034;-67
2022/01/01 02:54:00;;;;;;;13.27;8.77;;;7.10;79.40;;;;;;4995100;28;20115;-67
2022/01/01 02:56:26;;;;;;;13.95;8.80;;;7.10;79.70;;;;;;4998823;28;20073;-66
2022/01/01 02:58:52;;;;;;;12.32;8.45;;;7.00;80.00;;;;;;4994514;28;20081;-67
2022/01/01 03:01:18;;;;;;;12.90;7.40;;;6.90;80.20;;;;;;4993619;28;20147;-67
2022/01/01 03:03:46;;;;;;;11.65;8.23;;;6.90;80.30;;;;;;4994153;28;20038;-68
2022/01/01 03:06:19;;;;;;;12.07;7.85;;;6.80;80.30;;;;;;4994360;28;20030;-67
2022/01/01 03:08:46;;;;;;;13.07;7.80;;;6.80;80.20;;;;;;4994031;28;20037;-67
2022/01/01 03:11:11;;;;;;;11.25;7.72;;;6.70;80.30;;;;;;4999174;28;20037;-67
2022/01/01 03:13:37;;;;;;;12.00;7.82;;;6.70;80.60;;;;;;4997205;28;20030;-68
2022/01/01 03:16:03;;;;;;;12.20;7.38;;;6.60;80.50;;;;;;4997358;28;20030;-67
2022/01/01 03:18:29;;;;;;;13.73;7.50;;;6.60;80.60;;;;;;4995512;28;20053;-67
2022/01/01 03:20:54;;;;;;;11.50;7.88;;;6.50;80.70;;;;;;4994333;28;20092;-67
2022/01/01 03:23:20;;;;;;;9.57;7.07;;;6.50;81.10;;;;;;4993972;28;20116;-67
2022/01/01 03:25:45;;;;;;;12.40;7.75;;;6.50;81.10;;;;;;4999287;28;20030;-68
2022/01/01 03:28:11;;;;;;;10.65;7.60;;;6.50;81.10;;;;;;4996504;28;20046;-67
2022/01/01 03:30:37;;;;;;;11.10;6.85;;;6.40;81.20;;;;;;4995310;28;20030;-70
2022/01/01 03:33:02;;;;;;;11.52;6.85;;;6.40;81.30;;;;;;4994678;28;20493;-69
2022/01/01 03:35:28;;;;;;;12.68;7.40;;;6.40;81.30;;;;;;4993883;28;20561;-69
2022/01/01 03:37:54;;;;;;;11.00;7.18;;;6.40;81.30;;;;;;4994459;28;20050;-69
2022/01/01 03:40:19;;;;;;;11.88;7.95;;;6.40;81.10;;;;;;4994775;28;20062;-69
2022/01/01 03:42:45;;;;;;;11.10;7.63;;;6.40;80.90;;;;;;4996675;28;20159;-69
2022/01/01 03:45:11;;;;;;;11.65;7.30;;;6.40;81.10;;;;;;4994225;28;20505;-69
2022/01/01 03:47:36;;;;;;;12.48;7.22;;;6.40;81.30;;;;;;4996545;28;20864;-70
2022/01/01 03:50:03;;;;;;;11.07;7.40;;;6.30;81.40;;;;;;4993720;28;20045;-69
2022/01/01 03:52:28;;;;;;;10.90;6.18;;;6.30;81.30;;;;;;4994292;28;20042;-70
2022/01/01 03:54:54;;;;;;;12.32;7.13;;;6.30;81.30;;;;;;4995548;28;20064;-69
2022/01/01 03:57:22;;;;;;;9.88;6.60;;;6.30;81.30;;;;;;4996894;28;20604;-69
2022/01/01 03:59:48;;;;;;;10.68;6.55;;;6.20;81.20;;;;;;4993586;28;20053;-69
2022/01/01 04:02:14;;;;;;;13.65;6.82;;;6.20;80.90;;;;;;4995561;28;20500;-69
2022/01/01 04:04:40;;;;;;;9.30;6.60;;;6.20;80.90;;;;;;4994133;28;20140;-69
2022/01/01 04:07:07;;;;;;;9.30;6.70;;;6.20;80.80;;;;;;4992896;28;20045;-69
2022/01/01 04:09:32;;;;;;;7.95;5.90;;;6.20;80.90;;;;;;4998522;28;23140;-69
2022/01/01 04:11:58;;;;;;;11.02;7.10;;;6.20;80.90;;;;;;4997097;28;20046;-70
2022/01/01 04:14:24;;;;;;;14.10;8.15;;;6.20;80.90;;;;;;5005774;28;20042;-70
2022/01/01 04:16:51;;;;;;;10.95;7.30;;;6.20;82.30;;;;;;4996419;28;20140;-69
2022/01/01 04:19:17;;;;;;;13.10;7.78;;;6.20;81.60;;;;;;4996485;28;20042;-70
2022/01/01 04:21:42;;;;;;;13.73;8.77;;;6.20;81.50;;;;;;4996616;28;20088;-70
2022/01/01 04:24:08;;;;;;;17.80;11.68;;;6.20;81.60;;;;;;5000029;28;20501;-70
2022/01/01 04:26:34;;;;;;;27.35;14.77;;;6.20;81.80;;;;;;4998448;28;20131;-69
2022/01/01 04:29:00;;;;;;;31.20;16.45;;;6.30;82.30;;;;;;5001426;28;20038;-68
2022/01/01 04:31:26;;;;;;;43.42;21.45;;;6.30;82.60;;;;;;4997293;28;20122;-69
2022/01/01 04:33:51;;;;;;;40.85;21.65;;;6.40;82.80;;;;;;4998460;28;20431;-70
2022/01/01 04:36:17;;;;;;;42.70;21.92;;;6.40;82.90;;;;;;4996490;28;20026;-69
2022/01/01 04:38:44;;;;;;;33.05;18.70;;;6.50;83.00;;;;;;4996717;28;20100;-66
2022/01/01 04:41:13;;;;;;;23.27;14.15;;;6.50;82.90;;;;;;4998500;28;20046;-69
2022/01/01 04:43:40;;;;;;;21.25;12.68;;;6.50;82.90;;;;;;5000805;28;20026;-69
2022/01/01 04:46:07;;;;;;;18.20;11.10;;;6.60;82.70;;;;;;4997313;28;20039;-69
2022/01/01 04:48:36;;;;;;;19.50;11.63;;;6.50;82.40;;;;;;4996034;28;20707;-69
2022/01/01 04:51:09;;;;;;;16.83;10.77;;;6.60;82.40;;;;;;4999660;28;20521;-69
2022/01/01 04:53:35;;;;;;;17.90;11.02;;;6.50;82.40;;;;;;4998020;28;20536;-69
2022/01/01 04:56:05;;;;;;;14.95;10.02;;;6.60;82.60;;;;;;4998740;28;20045;-69
2022/01/01 04:58:31;;;;;;;16.50;10.73;;;6.60;82.50;;;;;;4998854;28;20046;-69
2022/01/01 05:00:56;;;;;;;17.00;10.60;;;6.60;82.40;;;;;;4999148;28;20045;-68
2022/01/01 05:03:22;;;;;;;19.98;11.98;;;6.60;82.10;;;;;;4997539;28;20038;-69
2022/01/01 05:05:48;;;;;;;16.00;10.35;;;6.60;82.00;;;;;;4997979;28;20120;-68
2022/01/01 05:08:13;;;;;;;17.38;10.75;;;6.60;81.80;;;;;;4998177;28;20196;-69
2022/01/01 05:10:39;;;;;;;16.58;10.65;;;6.50;81.70;;;;;;4995841;28;20037;-68
2022/01/01 05:13:04;;;;;;;19.05;10.10;;;6.50;81.80;;;;;;4999568;28;20508;-69
2022/01/01 05:15:30;;;;;;;15.05;10.18;;;6.50;81.80;;;;;;5000738;28;20038;-69
2022/01/01 05:17:56;;;;;;;18.65;11.32;;;6.50;81.70;;;;;;4997485;28;20038;-69
2022/01/01 05:20:22;;;;;;;15.85;9.60;;;6.50;81.40;;;;;;4995659;28;20111;-69
2022/01/01 05:22:47;;;;;;;17.35;10.32;;;6.50;81.10;;;;;;4997512;28;20075;-67
2022/01/01 05:25:13;;;;;;;18.48;10.40;;;6.50;80.80;;;;;;4995146;28;20030;-69
2022/01/01 05:27:40;;;;;;;20.02;10.80;;;6.40;80.60;;;;;;4997027;28;20583;-69
2022/01/01 05:30:07;;;;;;;17.55;10.23;;;6.30;80.60;;;;;;4997312;28;20073;-69
2022/01/01 05:32:33;;;;;;;15.50;9.90;;;6.30;80.70;;;;;;4995882;28;20042;-69
2022/01/01 05:34:59;;;;;;;17.85;11.25;;;6.30;80.80;;;;;;4996336;28;20089;-69
2022/01/01 05:37:25;;;;;;;20.42;12.63;;;6.20;80.80;;;;;;4996067;28;20042;-69
2022/01/01 05:39:50;;;;;;;22.48;13.32;;;6.20;80.70;;;;;;4996706;28;20046;-67
2022/01/01 05:42:16;;;;;;;18.88;11.40;;;6.20;80.50;;;;;;4995492;28;20037;-69
2022/01/01 05:44:41;;;;;;;17.88;10.73;;;6.10;80.60;;;;;;4996243;28;20038;-69
2022/01/01 05:47:07;;;;;;;16.02;10.32;;;6.10;80.70;;;;;;4998269;28;20420;-69
2022/01/01 05:49:33;;;;;;;16.58;11.25;;;6.10;80.80;;;;;;4996747;28;20077;-69
2022/01/01 05:51:58;;;;;;;16.50;10.50;;;6.10;80.90;;;;;;4995016;28;20044;-69
2022/01/01 05:54:24;;;;;;;16.85;10.48;;;6.00;81.10;;;;;;4996750;28;20041;-70
2022/01/01 05:56:49;;;;;;;17.90;9.93;;;6.00;81.40;;;;;;4998259;28;20107;-69
2022/01/01 05:59:15;;;;;;;13.27;9.00;;;6.00;81.30;;;;;;4995303;28;20099;-67
2022/01/01 06:01:41;;;;;;;12.70;7.88;;;6.00;80.90;;;;;;4998242;28;20479;-69
2022/01/01 06:04:06;;;;;;;14.40;8.93;;;5.90;80.80;;;;;;4996490;28;20034;-69
2022/01/01 06:06:32;;;;;;;14.90;9.60;;;5.90;80.90;;;;;;4993369;28;20026;-69
2022/01/01 06:08:58;;;;;;;14.70;9.20;;;5.90;80.90;;;;;;4995605;28;20034;-69
2022/01/01 06:11:24;;;;;;;18.33;10.63;;;5.90;80.70;;;;;;4996192;28;20038;-70
2022/01/01 06:13:49;;;;;;;17.00;11.02;;;5.80;80.50;;;;;;4997161;28;20524;-69
2022/01/01 06:16:15;;;;;;;17.80;9.63;;;5.80;80.50;;;;;;4995896;28;20118;-69
2022/01/01 06:18:41;;;;;;;15.23;9.60;;;5.80;80.60;;;;;;4996333;28;20038;-69
2022/01/01 06:21:06;;;;;;;13.60;8.77;;;5.70;80.60;;;;;;4995586;28;20027;-69
2022/01/01 06:23:36;;;;;;;12.70;8.25;;;5.70;80.50;;;;;;4995256;28;20030;-69
2022/01/01 06:26:02;;;;;;;13.13;8.18;;;5.60;80.40;;;;;;4998747;28;20030;-69
2022/01/01 06:28:28;;;;;;;13.43;9.05;;;5.60;80.50;;;;;;4994003;28;20049;-69
2022/01/01 06:30:53;;;;;;;12.98;8.20;;;5.60;80.60;;;;;;4995247;28;20465;-69
2022/01/01 06:33:20;;;;;;;11.70;8.10;;;5.60;80.60;;;;;;4998862;28;20049;-69
2022/01/01 06:35:46;;;;;;;12.82;9.00;;;5.50;80.40;;;;;;4995400;28;20030;-69
2022/01/01 06:38:13;;;;;;;13.48;8.85;;;5.50;80.50;;;;;;4995141;28;20042;-69
2022/01/01 06:40:39;;;;;;;12.50;8.20;;;5.50;80.60;;;;;;4994343;28;20509;-69
2022/01/01 06:43:07;;;;;;;10.88;7.93;;;5.50;80.60;;;;;;4995931;28;20035;-68
2022/01/01 06:45:32;;;;;;;13.93;9.05;;;5.50;80.40;;;;;;4994291;28;20523;-70
2022/01/01 06:47:58;;;;;;;13.35;8.93;;;5.50;80.40;;;;;;4996692;28;20038;-69
2022/01/01 06:50:24;;;;;;;13.70;8.82;;;5.50;80.00;;;;;;4993010;28;20464;-69
2022/01/01 06:52:50;;;;;;;14.15;8.52;;;5.40;80.60;;;;;;4993901;28;20038;-69
2022/01/01 06:55:16;;;;;;;11.23;7.82;;;5.40;79.70;;;;;;4996207;28;20509;-69
2022/01/01 06:57:42;;;;;;;12.63;7.90;;;5.30;79.70;;;;;;4994428;28;20112;-69
2022/01/01 07:00:09;;;;;;;11.02;7.13;;;5.20;79.60;;;;;;4993386;28;20039;-69
2022/01/01 07:02:42;;;;;;;10.43;6.78;;;5.20;79.80;;;;;;4998447;28;20041;-69
2022/01/01 07:05:10;;;;;;;9.57;6.35;;;5.10;80.20;;;;;;4996761;28;20066;-69
2022/01/01 07:07:35;;;;;;;11.23;7.13;;;5.00;80.60;;;;;;4993700;28;20044;-70
2022/01/01 07:10:05;;;;;;;9.55;6.75;;;5.00;81.00;;;;;;4996574;28;20043;-69
2022/01/01 07:12:31;;;;;;;10.63;7.13;;;5.00;81.30;;;;;;4993294;28;20420;-69
2022/01/01 07:14:57;;;;;;;11.25;6.97;;;5.00;81.40;;;;;;5005898;28;20042;-70
2022/01/01 07:17:22;;;;;;;8.98;6.35;;;5.00;81.50;;;;;;5003975;28;20121;-69
2022/01/01 07:19:48;;;;;;;11.75;7.20;;;5.00;81.60;;;;;;5006356;28;20049;-69
2022/01/01 07:22:13;;;;;;;11.50;7.57;;;5.00;81.50;;;;;;5006908;28;20109;-69
2022/01/01 07:24:39;;;;;;;10.70;7.40;;;5.00;81.30;;;;;;5004923;28;20030;-69
2022/01/01 07:27:05;;;;;;;13.52;7.82;;;5.00;81.30;;;;;;5005915;28;20665;-69
2022/01/01 07:29:31;;;;;;;10.63;7.38;;;5.00;81.40;;;;;;5005001;28;20036;-70
2022/01/01 07:31:57;;;;;;;10.88;7.18;;;5.00;81.40;;;;;;5006260;28;20049;-70
2022/01/01 07:34:22;;;;;;;11.88;7.45;;;5.00;81.30;;;;;;5004429;28;20451;-70
2022/01/01 07:36:49;;;;;;;12.93;8.75;;;5.00;81.20;;;;;;5003314;28;20124;-69
2022/01/01 07:39:14;;;;;;;14.93;9.13;;;5.00;81.20;;;;;;5004189;28;20497;-69
2022/01/01 07:41:40;;;;;;;14.85;8.77;;;5.00;81.40;;;;;;5004749;28;20113;-70
2022/01/01 07:44:07;;;;;;;13.90;8.38;;;5.00;81.40;;;;;;5005288;28;20603;-69
2022/01/01 07:46:33;;;;;;;16.25;9.77;;;5.00;81.60;;;;;;5004764;28;20041;-70
2022/01/01 07:48:58;;;;;;;17.80;10.50;;;5.00;81.80;;;;;;5007238;28;20057;-69
2022/01/01 07:51:24;;;;;;;15.93;10.52;;;5.00;81.80;;;;;;5008682;28;20591;-70
2022/01/01 07:53:50;;;;;;;16.08;10.35;;;5.00;81.90;;;;;;5008729;28;20067;-69
2022/01/01 07:56:15;;;;;;;13.43;9.50;;;5.00;81.90;;;;;;5009766;28;20536;-69
2022/01/01 07:58:41;;;;;;;13.43;9.85;;;5.00;81.90;;;;;;4994681;28;20041;-69
2022/01/01 08:01:07;;;;;;;14.98;10.65;;;5.10;82.10;;;;;;5000041;28;20476;-69
2022/01/01 08:03:32;;;;;;;13.40;9.80;;;5.00;82.10;;;;;;4999704;28;20121;-69
2022/01/01 08:05:58;;;;;;;12.75;9.52;;;5.00;82.50;;;;;;5006681;28;20065;-70
2022/01/01 08:08:24;;;;;;;11.25;8.52;;;5.00;82.60;;;;;;5002563;28;20034;-70
2022/01/01 08:10:49;;;;;;;11.15;7.63;;;5.00;82.80;;;;;;5004426;28;20038;-69
2022/01/01 08:13:23;;;;;;;11.23;8.07;;;5.00;82.80;;;;;;5003923;28;20041;-70
2022/01/01 08:15:49;;;;;;;10.38;7.88;;;5.00;83.00;;;;;;4994740;28;20046;-69
2022/01/01 08:18:15;;;;;;;14.93;8.98;;;5.00;83.00;;;;;;4993901;28;20620;-70
2022/01/01 08:20:41;;;;;;;12.35;7.53;;;5.00;83.10;;;;;;4997337;28;20045;-69
2022/01/01 08:23:07;;;;;;;12.48;7.50;;;5.00;83.20;;;;;;4995194;28;20189;-68
2022/01/01 08:25:33;;;;;;;11.27;7.03;;;5.00;83.20;;;;;;4995784;28;20088;-68
2022/01/01 08:27:58;;;;;;;19.60;6.30;;;5.00;83.10;;;;;;4994597;28;20034;-69
2022/01/01 08:30:24;;;;;;;13.07;6.40;;;5.00;83.10;;;;;;4991719;28;20062;-68
2022/01/01 08:32:50;;;;;;;16.08;7.13;;;5.00;83.00;;;;;;4991324;28;20152;-70
2022/01/01 08:35:16;;;;;;;18.17;7.53;;;5.00;82.90;;;;;;4994978;28;20635;-67
2022/01/01 08:37:42;;;;;;;16.02;7.18;;;5.00;83.00;;;;;;4991685;28;20045;-71
2022/01/01 08:40:08;;;;;;;10.48;6.50;;;5.00;83.10;;;;;;4990560;28;20034;-69
2022/01/01 08:42:33;;;;;;;11.48;6.72;;;5.00;83.30;;;;;;4989717;28;20038;-69
2022/01/01 08:44:59;;;;;;;19.45;11.15;;;5.00;83.50;;;;;;4994399;28;20773;-69
2022/01/01 08:47:26;;;;;;;12.95;9.15;;;5.00;83.70;;;;;;4994038;28;20505;-70
2022/01/01 08:49:55;;;;;;;10.55;8.13;;;5.00;83.90;;;;;;4996167;28;20464;-69
2022/01/01 08:52:25;;;;;;;10.48;7.70;;;5.00;84.20;;;;;;4995207;28;20030;-69
2022/01/01 08:54:56;;;;;;;10.27;7.40;;;5.10;84.50;;;;;;4995778;28;20042;-69
2022/01/01 08:57:23;;;;;;;10.65;7.68;;;5.10;84.60;;;;;;4993353;28;20042;-70
2022/01/01 08:59:48;;;;;;;10.50;7.47;;;5.10;84.70;;;;;;4995087;28;20038;-68
2022/01/01 09:02:14;;;;;;;12.57;7.85;;;5.20;84.70;;;;;;4992989;28;20042;-69
2022/01/01 09:04:40;;;;;;;21.60;12.75;;;5.20;84.80;;;;;;4993866;28;20191;-69
2022/01/01 09:07:05;;;;;;;19.50;12.75;;;5.30;84.80;;;;;;4993478;28;20083;-69
2022/01/01 09:09:31;;;;;;;15.20;10.70;;;5.40;84.80;;;;;;4992776;28;20053;-68
2022/01/01 09:11:57;;;;;;;10.45;8.27;;;5.40;84.90;;;;;;4996373;28;20053;-70
2022/01/01 09:14:22;;;;;;;11.90;8.43;;;5.50;85.10;;;;;;4991093;28;20041;-69
2022/01/01 09:16:48;;;;;;;10.77;8.05;;;5.60;86.00;;;;;;4993064;28;20189;-70
2022/01/01 09:19:14;;;;;;;12.68;8.48;;;5.70;85.30;;;;;;4992009;28;20034;-68
2022/01/01 09:21:40;;;;;;;15.93;10.55;;;5.80;85.50;;;;;;5000190;28;20030;-69
2022/01/01 09:24:05;;;;;;;16.75;11.50;;;5.90;85.70;;;;;;5003796;28;20105;-69
2022/01/01 09:26:31;;;;;;;15.82;10.38;;;6.00;85.80;;;;;;5004812;28;20088;-69
2022/01/01 09:28:56;;;;;;;26.92;12.93;;;6.00;85.80;;;;;;5004550;28;20825;-69
2022/01/01 09:31:22;;;;;;;17.08;10.63;;;6.20;86.00;;;;;;5004291;28;20112;-68
2022/01/01 09:33:48;;;;;;;14.85;9.90;;;6.20;86.00;;;;;;5005399;28;20105;-68
2022/01/01 09:36:17;;;;;;;14.57;9.25;;;6.30;86.10;;;;;;5004474;28;20448;-70
2022/01/01 09:38:43;;;;;;;15.30;10.07;;;6.50;86.10;;;;;;4999479;28;20042;-69
2022/01/01 09:41:10;;;;;;;16.80;10.70;;;6.60;86.20;;;;;;5004738;28;20497;-69
2022/01/01 09:43:36;;;;;;;15.43;9.95;;;6.70;87.10;;;;;;5005978;28;20616;-69
2022/01/01 09:46:03;;;;;;;19.70;10.95;;;6.80;86.30;;;;;;4999921;28;20305;-69
2022/01/01 09:48:29;;;;;;;18.00;11.07;;;6.90;86.40;;;;;;5004329;28;20477;-69
2022/01/01 09:51:00;;;;;;;17.52;11.88;;;7.00;86.40;;;;;;5006110;28;20057;-69
2022/01/01 09:53:28;;;;;;;20.15;11.88;;;7.20;86.60;;;;;;5004780;28;20509;-69
2022/01/01 09:55:55;;;;;;;19.77;12.38;;;7.30;86.60;;;;;;5004797;28;20493;-66
2022/01/01 09:58:25;;;;;;;19.25;12.10;;;7.40;86.60;;;;;;5001684;28;20038;-66
2022/01/01 10:00:52;;;;;;;19.30;11.23;;;7.60;86.50;;;;;;5002711;28;20517;-66
2022/01/01 10:03:32;;;;;;;19.92;11.75;;;7.70;86.20;;;;;;5003911;28;20054;-67
2022/01/01 10:06:00;;;;;;;23.17;13.05;;;7.90;86.20;;;;;;5003706;28;20501;-68
2022/01/01 10:08:26;;;;;;;20.63;13.02;;;8.00;85.90;;;;;;5001699;28;20034;-66
2022/01/01 10:10:53;;;;;;;21.42;12.70;;;8.20;85.90;;;;;;4999695;28;20044;-66
2022/01/01 10:13:24;;;;;;;20.38;12.40;;;8.30;85.60;;;;;;5003804;28;20053;-66
2022/01/01 10:15:50;;;;;;;23.63;13.73;;;8.40;85.30;;;;;;5002594;28;20034;-66
2022/01/01 10:18:15;;;;;;;21.50;14.10;;;8.50;85.20;;;;;;5002998;28;20044;-66
2022/01/01 10:20:44;;;;;;;20.50;12.75;;;8.70;85.20;;;;;;4998694;28;20049;-66
2022/01/01 10:23:15;;;;;;;21.95;13.07;;;8.80;85.00;;;;;;5002422;28;20038;-66
2022/01/01 10:28:25;;;;;;;20.67;12.65;;;9.10;84.70;;;;;;5002876;28;20045;-66
2022/01/01 10:30:51;;;;;;;20.23;12.55;;;9.30;84.60;;;;;;5004269;28;20038;-65
2022/01/01 10:33:19;;;;;;;21.52;12.45;;;9.40;84.30;;;;;;4999649;28;20512;-66
2022/01/01 10:35:53;;;;;;;25.98;13.00;;;9.50;83.80;;;;;;5003901;28;20030;-66
2022/01/01 10:38:28;;;;;;;19.00;12.00;;;9.70;83.70;;;;;;4996449;28;20037;-66
2022/01/01 10:41:16;;;;;;;;;;;9.80;83.20;;;;;;4998670;28;20512;-65
2022/01/01 10:43:45;;;;;;;17.77;10.82;;;9.90;83.30;;;;;;5002566;28;19917;-65
2022/01/01 10:46:19;;;;;;;19.25;11.57;;;10.00;82.90;;;;;;5000811;28;20030;-66
2022/01/01 10:51:13;;;;;;;15.00;10.32;;;10.20;82.20;;;;;;5000566;28;20045;-65
2022/01/01 10:53:39;;;;;;;14.32;9.45;;;10.30;82.00;;;;;;5002612;28;20778;-66
2022/01/01 10:56:19;;;;;;;14.93;9.10;;;10.40;81.90;;;;;;5003657;28;20107;-66
2022/01/01 10:58:57;;;;;;;16.55;9.82;;;10.40;81.30;;;;;;5000665;28;20052;-66
2022/01/01 11:01:23;;;;;;;18.42;10.75;;;10.60;81.90;;;;;;5001297;28;20056;-66
2022/01/01 11:03:48;;;;;;;16.80;10.02;;;10.60;82.10;;;;;;4998356;28;20061;-66
2022/01/01 11:06:17;;;;;;;16.70;9.65;;;10.70;81.90;;;;;;5001436;28;20520;-66
2022/01/01 11:08:45;;;;;;;16.88;10.38;;;10.80;81.40;;;;;;5002368;28;20034;-66
2022/01/01 11:11:13;;;;;;;15.98;9.85;;;10.90;81.40;;;;;;4996265;28;20046;-66
2022/01/01 11:13:39;;;;;;;15.38;9.95;;;10.90;81.20;;;;;;5001933;28;20413;-66
2022/01/01 11:16:06;;;;;;;14.45;9.30;;;11.00;80.80;;;;;;5000463;28;20029;-66
2022/01/01 11:18:34;;;;;;;14.25;9.48;;;11.10;80.30;;;;;;5000461;28;20517;-65
2022/01/01 11:21:03;;;;;;;17.42;9.82;;;11.20;80.20;;;;;;5001315;28;20042;-66
2022/01/01 11:23:31;;;;;;;15.57;9.95;;;11.20;80.00;;;;;;5002543;28;20033;-66
2022/01/01 11:25:57;;;;;;;14.90;9.57;;;11.30;80.00;;;;;;5002241;28;20038;-66
2022/01/01 11:28:23;;;;;;;13.85;9.48;;;11.30;80.00;;;;;;5003061;28;20039;-66
2022/01/01 11:30:51;;;;;;;15.40;9.63;;;11.30;79.80;;;;;;5000956;28;20029;-66
2022/01/01 11:33:20;;;;;;;14.80;9.68;;;11.40;79.70;;;;;;5002744;28;20030;-66
2022/01/01 11:35:56;;;;;;;16.08;9.88;;;11.40;79.60;;;;;;4996631;28;20085;-68
2022/01/01 11:38:22;;;;;;;14.13;9.23;;;11.50;79.30;;;;;;5009812;28;20521;-66
2022/01/01 11:40:47;;;;;;;12.43;8.65;;;11.50;79.70;;;;;;4999931;28;20095;-66
2022/01/01 11:43:42;;;;;;;11.48;8.20;;;11.60;79.60;;;;;;4999444;28;20030;-66
2022/01/01 11:46:29;;;;;;;11.60;8.02;;;11.60;78.40;;;;;;5000455;28;20128;-68
2022/01/01 11:48:57;;;;;;;13.10;7.75;;;11.70;78.30;;;;;;5000261;28;20065;-67
2022/01/01 11:51:48;;;;;;;13.27;8.30;;;11.70;78.50;;;;;;5002800;28;20378;-66
2022/01/01 11:54:14;;;;;;;12.20;7.85;;;11.80;78.10;;;;;;5001803;28;20556;-65
2022/01/01 11:56:49;;;;;;;13.95;8.48;;;11.90;78.10;;;;;;5006073;28;20030;-69
2022/01/01 11:59:27;;;;;;;;;;;12.00;77.20;;;;;;5004672;28;20117;-66
2022/01/01 12:01:55;;;;;;;10.70;7.40;;;12.00;77.50;;;;;;5005115;28;19918;-66
2022/01/01 12:04:27;;;;;;;12.27;7.45;;;12.10;77.80;;;;;;5005019;28;20030;-66
2022/01/01 12:07:10;;;;;;;13.82;8.23;;;12.20;77.40;;;;;;5006364;28;20042;-69
2022/01/01 12:10:06;;;;;;;11.13;6.85;;;12.20;76.80;;;;;;5005846;28;20037;-66
2022/01/01 12:12:54;;;;;;;10.60;6.60;;;12.40;75.90;;;;;;5003107;28;20042;-68
2022/01/01 12:15:41;;;;;;;10.52;6.97;;;12.50;76.10;;;;;;4996927;28;20050;-68
2022/01/01 12:18:10;;;;;;;9.90;6.88;;;12.60;75.30;;;;;;4995459;28;20038;-68
2022/01/01 12:20:37;;;;;;;10.73;7.10;;;12.60;75.40;;;;;;5001726;28;20034;-66
2022/01/01 12:23:15;;;;;;;8.98;6.50;;;12.70;75.50;;;;;;5003663;28;20684;-68
2022/01/01 12:25:42;;;;;;;13.10;7.43;;;12.80;74.60;;;;;;5001779;28;20034;-69
2022/01/01 12:28:12;;;;;;;10.20;6.22;;;12.90;76.00;;;;;;5003293;28;20034;-70
2022/01/01 12:30:37;;;;;;;9.98;6.65;;;12.90;74.70;;;;;;5000723;28;20521;-70
2022/01/01 12:33:04;;;;;;;8.30;6.30;;;13.00;74.70;;;;;;5004065;28;20049;-70
2022/01/01 12:35:48;;;;;;;9.65;6.85;;;13.00;74.30;;;;;;5005093;28;20516;-69
2022/01/01 12:38:26;;;;;;;9.27;7.13;;;13.10;73.00;;;;;;5007332;28;20137;-69
2022/01/01 12:41:19;;;;;;;9.52;6.35;;;13.20;73.00;;;;;;5005742;28;20049;-69
2022/01/01 12:43:52;;;;;;;9.15;6.03;;;13.20;71.40;;;;;;5005177;28;20030;-69
2022/01/01 12:46:39;;;;;;;8.52;5.82;;;13.30;72.30;;;;;;5006271;28;20095;-70
2022/01/01 12:49:07;;;;;;;10.40;5.60;;;13.30;72.50;;;;;;5004932;28;20068;-67
2022/01/01 12:51:37;;;;;;;7.55;6.00;;;13.30;72.30;;;;;;4994671;28;20045;-68